Time;durP1;ratioP1;P1;durP2;ratioP2;P2;SDS_P1;SDS_P2;PMS_P1;PMS_P2;Temp;Humidity;BMP_temperature;BMP_pressure;BME280_temperature;BME280_humidity;BME280_pressure;Samples;Min_cycle;Max_cycle;Signal;HPM_P1;HPM_P2
2023/10/02 00:01:06;;;;;;;11.98;7.53;;;;;;;18.34;99.90;101953.56;6277620;28;20231;-71
2023/10/02 00:04:28;;;;;;;14.57;8.02;;;;;;;18.31;100.00;101942.97;6278868;28;20232;-70
2023/10/02 00:07:51;;;;;;;11.38;7.72;;;;;;;18.32;100.00;101944.66;6275564;28;20799;-71
2023/10/02 00:11:39;;;;;;;9.57;7.43;;;;;;;18.30;100.00;101944.84;6272932;28;20236;-71
2023/10/02 00:15:12;;;;;;;9.02;7.50;;;;;;;18.32;100.00;101941.94;6259673;28;20220;-71
2023/10/02 00:18:34;;;;;;;10.90;7.68;;;;;;;18.31;100.00;101934.78;6258078;28;20228;-70
2023/10/02 00:21:59;;;;;;;12.80;7.90;;;;;;;18.27;100.00;101936.94;6257399;28;20232;-71
2023/10/02 00:25:22;;;;;;;13.40;8.73;;;;;;;18.24;100.00;101930.97;6255868;28;20319;-70
2023/10/02 00:28:43;;;;;;;12.23;7.93;;;;;;;18.25;100.00;101928.06;6255717;28;20237;-69
2023/10/02 00:32:11;;;;;;;11.50;7.47;;;;;;;18.23;100.00;101932.00;6263683;28;20233;-70
2023/10/02 00:35:49;;;;;;;12.68;8.00;;;;;;;18.24;100.00;101940.00;6259782;28;20224;-70
2023/10/02 00:42:54;;;;;;;9.25;7.10;;;;;;;18.30;100.00;101933.91;6271788;28;20231;-69
2023/10/02 00:46:23;;;;;;;13.15;7.57;;;;;;;18.34;100.00;101931.72;6266169;28;20475;-69
2023/10/02 00:49:44;;;;;;;11.15;7.63;;;;;;;18.36;100.00;101926.94;6257900;28;20223;-70
2023/10/02 00:53:06;;;;;;;10.93;8.05;;;;;;;18.33;100.00;101932.75;6265630;28;20228;-69
2023/10/02 00:56:28;;;;;;;11.15;7.28;;;;;;;18.29;100.00;101932.19;6263362;28;20620;-70
2023/10/02 00:59:59;;;;;;;18.63;9.23;;;;;;;18.28;100.00;101929.63;6255655;28;20239;-69
2023/10/02 01:03:22;;;;;;;12.90;9.43;;;;;;;18.17;100.00;101928.00;6276249;28;20220;-70
2023/10/02 01:07:11;;;;;;;9.60;7.07;;;;;;;18.15;100.00;101923.72;6259227;28;20318;-70
2023/10/02 01:10:36;;;;;;;15.55;8.98;;;;;;;18.14;100.00;101924.75;6261043;28;20924;-70
2023/10/02 01:13:57;;;;;;;12.02;7.65;;;;;;;18.11;100.00;101916.88;6264911;28;20327;-70
2023/10/02 01:17:21;;;;;;;11.35;7.45;;;;;;;18.19;100.00;101919.69;6254559;28;20272;-70
2023/10/02 01:20:45;;;;;;;12.02;9.35;;;;;;;18.16;100.00;101920.00;6273683;28;20231;-70
2023/10/02 01:24:09;;;;;;;12.00;8.77;;;;;;;18.09;100.00;101907.97;6261915;28;20235;-70
2023/10/02 01:27:40;;;;;;;10.95;8.30;;;;;;;18.05;100.00;101910.19;6258121;28;20695;-69
2023/10/02 01:31:31;;;;;;;12.32;8.65;;;;;;;18.02;100.00;101913.22;6279436;28;20230;-69
2023/10/02 01:34:42;;;;;;;10.98;8.77;;;;;;;17.98;100.00;101911.00;6267316;28;20231;-70
2023/10/02 01:38:12;;;;;;;12.98;9.23;;;;;;;17.96;100.00;101910.28;6258373;28;20227;-69
2023/10/02 01:41:34;;;;;;;12.60;8.32;;;;;;;17.94;100.00;101909.59;6260961;28;20577;-69
2023/10/02 01:44:57;;;;;;;11.70;9.23;;;;;;;17.95;100.00;101911.28;6257175;28;20215;-70
2023/10/02 01:48:36;;;;;;;11.35;8.45;;;;;;;17.93;100.00;101908.72;6262038;28;20235;-69
2023/10/02 01:52:01;;;;;;;16.05;8.63;;;;;;;17.93;100.00;101911.47;6263061;28;20511;-69
2023/10/02 01:55:29;;;;;;;11.77;8.45;;;;;;;17.90;100.00;101903.56;6249010;28;20796;-70
2023/10/02 01:58:52;;;;;;;15.43;9.50;;;;;;;17.89;100.00;101907.34;6270872;28;20232;-70
2023/10/02 02:02:14;;;;;;;9.57;7.55;;;;;;;17.90;100.00;101913.66;6260167;28;20243;-70
2023/10/02 02:05:35;;;;;;;14.23;9.80;;;;;;;17.88;100.00;101908.34;6260723;28;20235;-70
2023/10/02 02:08:59;;;;;;;11.60;8.07;;;;;;;17.89;100.00;101907.34;6253549;28;20666;-69
2023/10/02 02:12:22;;;;;;;15.40;8.45;;;;;;;17.88;100.00;101900.16;6258622;28;20416;-70
2023/10/02 02:15:47;;;;;;;13.43;9.43;;;;;;;17.88;100.00;101908.34;6254357;28;20256;-70
2023/10/02 02:19:07;;;;;;;11.32;8.95;;;;;;;17.91;100.00;101902.56;6263842;28;20321;-70
2023/10/02 02:22:31;;;;;;;13.32;8.95;;;;;;;17.87;100.00;101894.88;6261260;28;20239;-70
2023/10/02 02:25:52;;;;;;;12.50;7.10;;;;;;;17.85;100.00;101894.16;6262354;28;20310;-70
2023/10/02 02:29:23;;;;;;;12.13;8.98;;;;;;;17.84;100.00;101898.75;6273993;28;20232;-70
2023/10/02 02:32:52;;;;;;;13.18;8.93;;;;;;;17.78;100.00;101896.66;6248325;28;20235;-70
2023/10/02 02:36:13;;;;;;;10.68;8.90;;;;;;;17.81;100.00;101892.78;6269507;28;20258;-70
2023/10/02 02:39:37;;;;;;;13.70;8.27;;;;;;;17.78;100.00;101895.81;6264522;28;20837;-70
2023/10/02 02:42:58;;;;;;;13.40;8.43;;;;;;;17.78;100.00;101893.06;6269776;28;20600;-70
2023/10/02 02:46:19;;;;;;;12.90;8.73;;;;;;;17.82;100.00;101889.88;6275653;28;20227;-70
2023/10/02 02:49:50;;;;;;;10.00;8.25;;;;;;;17.80;100.00;101891.03;6262503;28;20671;-70
2023/10/02 02:53:21;;;;;;;13.23;9.05;;;;;;;17.76;100.00;101884.19;6268667;28;20317;-69
2023/10/02 02:56:42;;;;;;;13.57;9.07;;;;;;;17.72;100.00;101888.25;6265745;28;20231;-68
2023/10/02 03:03:45;;;;;;;11.35;8.93;;;;;;;17.66;100.00;101889.75;6286144;28;20232;-69
2023/10/02 03:07:29;;;;;;;12.20;7.65;;;;;;;17.61;100.00;101880.34;6264112;28;20235;-69
2023/10/02 03:10:57;;;;;;;12.75;8.25;;;;;;;17.55;100.00;101885.41;6263516;28;20228;-69
2023/10/02 03:14:19;;;;;;;13.77;10.05;;;;;;;17.52;100.00;101874.78;6264429;28;20231;-69
2023/10/02 03:17:41;;;;;;;14.60;9.02;;;;;;;17.52;100.00;101879.41;6271210;28;20248;-69
2023/10/02 03:21:14;;;;;;;13.07;8.60;;;;;;;17.53;100.00;101884.69;6264568;28;20224;-69
2023/10/02 03:24:36;;;;;;;12.35;7.78;;;;;;;17.55;100.00;101892.72;6267889;28;20235;-69
2023/10/02 03:27:58;;;;;;;11.65;8.23;;;;;;;17.52;100.00;101882.97;6263859;28;20220;-69
2023/10/02 03:31:34;;;;;;;13.32;9.25;;;;;;;17.47;100.00;101879.84;6287302;28;20239;-70
2023/10/02 03:35:02;;;;;;;10.85;8.85;;;;;;;17.46;100.00;101883.56;6276403;28;20617;-70
2023/10/02 03:38:24;;;;;;;13.52;8.25;;;;;;;17.48;100.00;101881.53;6259862;28;20592;-70
2023/10/02 03:41:48;;;;;;;12.35;8.88;;;;;;;17.50;100.00;101881.44;6288798;28;20231;-69
2023/10/02 03:45:12;;;;;;;12.90;8.30;;;;;;;17.46;100.00;101875.38;6268419;28;20234;-70
2023/10/02 03:48:34;;;;;;;11.02;9.27;;;;;;;17.45;100.00;101873.69;6261396;28;20232;-70
2023/10/02 03:51:55;;;;;;;11.88;8.60;;;;;;;17.42;100.00;101868.53;6263937;28;20228;-70
2023/10/02 03:55:17;;;;;;;13.55;8.68;;;;;;;17.33;100.00;101864.03;6266613;28;20224;-70
2023/10/02 03:58:42;;;;;;;12.90;8.85;;;;;;;17.27;100.00;101863.78;6260716;28;20231;-70
2023/10/02 04:05:43;;;;;;;10.35;7.95;;;;;;;16.92;100.00;101861.03;6267629;28;20298;-70
2023/10/02 04:09:12;;;;;;;13.05;9.15;;;;;;;16.88;100.00;101859.59;6256558;28;20579;-70
2023/10/02 04:12:50;;;;;;;12.40;7.70;;;;;;;16.74;100.00;101860.97;6261152;28;20498;-70
2023/10/02 04:16:30;;;;;;;14.77;8.13;;;;;;;16.84;100.00;101858.19;6263394;28;20246;-70
2023/10/02 04:19:51;;;;;;;14.13;9.32;;;;;;;16.88;100.00;101862.31;6261697;28;20231;-69
2023/10/02 04:23:21;;;;;;;12.25;8.70;;;;;;;16.98;100.00;101860.41;6264871;28;20617;-69
2023/10/02 04:26:44;;;;;;;11.98;9.15;;;;;;;17.08;100.00;101861.19;6259728;28;20243;-70
2023/10/02 04:30:24;;;;;;;11.23;7.90;;;;;;;16.93;100.00;101855.41;6256499;28;20232;-70
2023/10/02 04:33:52;;;;;;;11.07;7.55;;;;;;;16.90;100.00;101854.88;6259689;28;20236;-70
2023/10/02 04:37:20;;;;;;;9.50;8.02;;;;;;;16.93;100.00;101851.84;6262966;28;20235;-70
2023/10/02 04:40:49;;;;;;;12.02;9.07;;;;;;;16.88;100.00;101854.16;6257831;28;20354;-70
2023/10/02 04:44:18;;;;;;;14.80;9.00;;;;;;;16.86;100.00;101858.88;6261728;28;20227;-70
2023/10/02 04:47:40;;;;;;;11.55;8.40;;;;;;;16.84;100.00;101842.72;6257262;28;20235;-70
2023/10/02 04:51:07;;;;;;;17.38;10.10;;;;;;;16.84;100.00;101842.72;6283295;28;20232;-70
2023/10/02 04:54:28;;;;;;;15.57;8.27;;;;;;;16.97;100.00;101842.34;6268879;28;20215;-70
2023/10/02 04:57:52;;;;;;;10.25;7.57;;;;;;;17.05;100.00;101835.13;6254408;28;20955;-70
2023/10/02 05:01:25;;;;;;;9.63;8.02;;;;;;;16.99;100.00;101824.84;6285894;28;20251;-70
2023/10/02 05:04:46;;;;;;;12.82;8.18;;;;;;;17.03;100.00;101833.53;6280197;28;20515;-70
2023/10/02 05:08:17;;;;;;;12.55;8.23;;;;;;;17.03;100.00;101833.53;6285012;28;20731;-69
2023/10/02 05:11:50;;;;;;;11.88;7.57;;;;;;;17.05;100.00;101829.66;6292392;28;20231;-70
2023/10/02 05:15:20;;;;;;;12.75;9.27;;;;;;;17.19;100.00;101836.47;6285146;28;20226;-70
2023/10/02 05:18:44;;;;;;;11.15;9.20;;;;;;;17.26;100.00;101835.66;6285176;28;20223;-69
2023/10/02 05:22:07;;;;;;;13.55;9.52;;;;;;;17.14;100.00;101833.34;6287445;28;20238;-70
2023/10/02 05:25:29;;;;;;;12.68;8.50;;;;;;;17.18;100.00;101835.59;6290053;28;20226;-71
2023/10/02 05:28:50;;;;;;;9.90;8.25;;;;;;;17.25;100.00;101830.38;6288103;28;20231;-70
2023/10/02 05:32:23;;;;;;;13.15;9.32;;;;;;;17.23;100.00;101832.41;6289274;28;20222;-70
2023/10/02 05:35:45;;;;;;;12.45;8.35;;;;;;;17.26;100.00;101826.63;6284645;28;20215;-68
2023/10/02 05:39:27;;;;;;;13.88;10.45;;;;;;;17.24;100.00;101831.38;6283342;28;20502;-69
2023/10/02 05:42:53;;;;;;;11.02;8.13;;;;;;;17.23;100.00;101835.97;6285919;28;20239;-69
2023/10/02 05:46:16;;;;;;;11.63;8.30;;;;;;;17.17;100.00;101831.13;6261173;28;20233;-69
2023/10/02 05:49:43;;;;;;;15.63;10.00;;;;;;;17.18;100.00;101841.03;6275976;28;20243;-69
2023/10/02 05:53:04;;;;;;;10.32;8.00;;;;;;;17.23;100.00;101844.16;6262576;28;20524;-69
2023/10/02 05:56:27;;;;;;;11.65;8.98;;;;;;;17.22;100.00;101842.44;6254158;28;20605;-69
2023/10/02 05:59:54;;;;;;;11.80;8.82;;;;;;;17.23;100.00;101852.31;6307618;28;20282;-69
2023/10/02 06:03:15;;;;;;;12.40;8.32;;;;;;;17.29;100.00;101856.31;6259919;28;20246;-70
2023/10/02 06:06:40;;;;;;;13.20;8.02;;;;;;;17.29;100.00;101856.31;6261391;28;20236;-70
2023/10/02 06:10:07;;;;;;;13.02;8.45;;;;;;;17.30;100.00;101853.44;6266964;28;20243;-70
2023/10/02 06:13:37;;;;;;;15.38;9.07;;;;;;;17.37;100.00;101856.38;6263385;28;20290;-70
2023/10/02 06:17:00;;;;;;;15.05;8.13;;;;;;;17.43;100.00;101851.16;6262010;28;20223;-69
2023/10/02 06:20:21;;;;;;;14.68;8.40;;;;;;;17.51;100.00;101854.00;6272282;28;20314;-70
2023/10/02 06:23:45;;;;;;;13.77;8.80;;;;;;;17.48;100.00;101847.97;6267055;28;20236;-69
2023/10/02 06:27:12;;;;;;;12.38;8.85;;;;;;;17.56;100.00;101845.34;6263681;28;20232;-69
2023/10/02 06:30:35;;;;;;;12.88;8.50;;;;;;;17.53;100.00;101853.84;6261742;28;20605;-70
2023/10/02 06:33:57;;;;;;;11.48;8.43;;;;;;;17.62;100.00;101852.03;6258941;28;20347;-70
2023/10/02 06:37:21;;;;;;;11.65;8.20;;;;;;;17.68;100.00;101860.44;6265106;28;20228;-69
2023/10/02 06:40:55;;;;;;;13.65;9.82;;;;;;;17.85;100.00;101862.28;6262841;28;20223;-69
2023/10/02 06:44:16;;;;;;;9.38;7.95;;;;;;;17.80;100.00;101861.91;6269824;28;20240;-70
2023/10/02 06:47:37;;;;;;;13.50;8.75;;;;;;;17.84;100.00;101862.44;6267028;28;20600;-70
2023/10/02 06:51:00;;;;;;;14.98;8.65;;;;;;;17.77;100.00;101858.66;6265380;28;20224;-69
2023/10/02 06:54:21;;;;;;;15.68;8.50;;;;;;;17.89;100.00;101854.63;6263820;28;20228;-70
2023/10/02 06:57:49;;;;;;;9.75;8.70;;;;;;;17.88;100.00;101856.50;6272568;28;20232;-69
2023/10/02 07:01:10;;;;;;;15.60;9.57;;;;;;;17.95;100.00;101860.31;6260567;28;20227;-70
2023/10/02 07:04:32;;;;;;;12.18;8.13;;;;;;;18.11;100.00;101851.38;6261588;28;20327;-70
2023/10/02 07:08:01;;;;;;;12.57;8.75;;;;;;;18.20;100.00;101855.88;6260821;28;20730;-69
2023/10/02 07:11:22;;;;;;;15.05;8.68;;;;;;;18.33;100.00;101857.16;6259763;28;20501;-70
2023/10/02 07:14:45;;;;;;;12.20;7.68;;;;;;;18.44;100.00;101858.75;6251921;28;20318;-70
2023/10/02 07:18:12;;;;;;;13.50;8.25;;;;;;;18.37;100.00;101863.13;6258828;28;20224;-69
2023/10/02 07:21:35;;;;;;;12.05;8.82;;;;;;;18.60;100.00;101863.44;6262707;28;20227;-70
2023/10/02 07:24:57;;;;;;;12.57;8.52;;;;;;;18.69;100.00;101843.34;6253060;28;20236;-70
2023/10/02 07:28:20;;;;;;;14.40;9.93;;;;;;;18.62;99.68;101851.34;6262649;28;20504;-70
2023/10/02 07:31:44;;;;;;;14.23;9.20;;;;;;;18.71;99.20;101850.34;6261003;28;20618;-70
2023/10/02 07:35:21;;;;;;;13.25;8.77;;;;;;;18.80;98.94;101849.34;6260714;28;20556;-70
2023/10/02 07:38:46;;;;;;;13.32;8.73;;;;;;;18.87;98.19;101847.69;6256005;28;20232;-70
2023/10/02 07:42:10;;;;;;;14.73;9.13;;;;;;;19.05;98.07;101847.53;6250049;28;20230;-69
2023/10/02 07:45:31;;;;;;;10.68;8.93;;;;;;;19.23;97.26;101841.94;6251974;28;20236;-70
2023/10/02 07:48:57;;;;;;;16.45;9.57;;;;;;;19.27;96.38;101843.31;6258527;28;20752;-70
2023/10/02 07:52:29;;;;;;;13.02;8.15;;;;;;;19.30;95.47;101843.81;6263584;28;20273;-70
2023/10/02 07:55:50;;;;;;;12.40;8.73;;;;;;;19.40;94.93;101849.19;6262222;28;20227;-69
2023/10/02 07:59:14;;;;;;;15.45;9.68;;;;;;;19.42;94.18;101838.94;6252526;28;20585;-69
2023/10/02 08:02:34;;;;;;;13.77;8.88;;;;;;;19.56;93.36;101846.47;6261440;28;20236;-69
2023/10/02 08:05:57;;;;;;;12.68;8.45;;;;;;;19.71;92.33;101850.22;6255050;28;20462;-69
2023/10/02 08:12:57;;;;;;;12.07;8.80;;;;;;;20.03;90.48;101855.66;6260897;28;20231;-69
2023/10/02 08:16:22;;;;;;;11.75;8.23;;;;;;;20.08;89.90;101855.13;6285324;28;20276;-68
2023/10/02 08:19:54;;;;;;;14.18;8.65;;;;;;;19.91;89.96;101855.16;6257676;28;20215;-69
2023/10/02 08:23:22;;;;;;;12.77;8.23;;;;;;;19.91;89.89;101855.16;6255753;28;20242;-70
2023/10/02 08:26:44;;;;;;;12.60;8.80;;;;;;;19.82;89.96;101845.25;6265617;28;20230;-69
2023/10/02 08:30:18;;;;;;;12.70;8.85;;;;;;;19.98;89.43;101844.38;6267983;28;20257;-69
2023/10/02 08:33:43;;;;;;;13.13;8.98;;;;;;;20.06;89.08;101838.88;6260531;28;20302;-69
2023/10/02 08:37:08;;;;;;;14.70;10.23;;;;;;;20.19;88.46;101843.81;6261242;28;21358;-69
2023/10/02 08:40:29;;;;;;;13.70;9.02;;;;;;;20.36;87.81;101849.09;6258868;28;20232;-70
2023/10/02 08:43:53;;;;;;;13.13;9.00;;;;;;;20.39;87.21;101853.38;6251813;28;20629;-69
2023/10/02 08:47:24;;;;;;;14.57;8.63;;;;;;;20.35;87.25;101852.88;6268082;28;20239;-70
2023/10/02 08:50:47;;;;;;;13.48;9.05;;;;;;;20.45;87.59;101859.00;6276747;28;20231;-70
2023/10/02 08:54:08;;;;;;;11.98;9.07;;;;;;;20.30;87.88;101855.28;6259238;28;20232;-69
2023/10/02 08:57:31;;;;;;;10.00;7.35;;;;;;;20.51;86.96;101866.53;6257598;28;20239;-69
2023/10/02 09:01:17;;;;;;;11.73;8.15;;;;;;;20.78;86.54;101864.38;6244818;28;20228;-71
2023/10/02 09:04:36;;;;;;;11.57;8.25;;;;;;;20.96;86.10;101863.09;6256485;28;20239;-70
2023/10/02 09:08:01;;;;;;;15.80;8.85;;;;;;;21.11;84.96;101861.28;6252254;28;20228;-70
2023/10/02 09:11:28;;;;;;;15.15;9.98;;;;;;;20.82;85.85;101846.53;6262239;28;20232;-70
2023/10/02 09:14:51;;;;;;;15.45;9.57;;;;;;;20.80;85.60;101852.19;6252679;28;20912;-69
2023/10/02 09:18:33;;;;;;;14.95;8.93;;;;;;;21.21;84.95;101845.47;6261588;28;20327;-70
2023/10/02 09:22:06;;;;;;;10.88;8.63;;;;;;;21.39;83.32;101843.28;6254976;28;20895;-70
2023/10/02 09:25:35;;;;;;;12.80;8.68;;;;;;;21.60;83.08;101839.84;6257136;28;20904;-70
2023/10/02 09:29:00;;;;;;;13.88;9.38;;;;;;;21.72;82.71;101837.50;6271960;28;20227;-70
2023/10/02 09:32:25;;;;;;;10.98;7.80;;;;;;;21.36;82.61;101845.56;6282677;28;20629;-68
2023/10/02 09:35:50;;;;;;;10.90;7.65;;;;;;;21.57;81.92;101842.13;6266971;28;20505;-71
2023/10/02 09:42:48;;;;;;;17.77;9.20;;;;;;;21.64;81.51;101843.94;6264412;28;20228;-69
2023/10/02 09:46:16;;;;;;;13.02;8.75;;;;;;;21.34;82.38;101837.47;6264219;28;20235;-69
2023/10/02 09:49:43;;;;;;;14.15;8.35;;;;;;;21.49;81.90;101840.28;6262489;28;20227;-69
2023/10/02 09:53:08;;;;;;;11.98;8.75;;;;;;;21.44;82.48;101840.81;6302507;28;20228;-70
2023/10/02 09:56:51;;;;;;;12.43;9.38;;;;;;;21.55;81.33;101836.78;6253574;28;20215;-69
2023/10/02 10:03:49;;;;;;;11.63;8.60;;;;;;;23.17;77.18;101819.34;6256950;28;20626;-69
2023/10/02 10:07:09;;;;;;;12.23;8.10;;;;;;;24.20;72.39;101820.53;6265505;28;20228;-70
2023/10/02 10:10:45;;;;;;;11.93;8.32;;;;;;;24.29;68.35;101817.41;6283553;28;20227;-70
2023/10/02 10:14:36;;;;;;;13.02;9.18;;;;;;;25.46;66.07;101804.28;6276773;28;20239;-69
2023/10/02 10:17:59;;;;;;;10.13;7.38;;;;;;;27.57;61.60;101809.88;6276333;28;20228;-70
2023/10/02 10:21:55;;;;;;;12.73;8.55;;;;;;;27.58;57.13;101806.00;6278316;28;20231;-70
2023/10/02 10:25:44;;;;;;;13.60;7.57;;;;;;;26.52;60.31;101812.28;6279455;28;20522;-70
2023/10/02 10:29:41;;;;;;;13.40;8.75;;;;;;;28.00;57.83;101793.28;6258471;28;20228;-71
2023/10/02 10:33:40;;;;;;;9.95;7.00;;;;;;;26.99;58.36;101800.00;6265435;28;20231;-70
2023/10/02 10:37:02;;;;;;;9.73;6.90;;;;;;;26.27;59.83;101805.75;6279753;28;20231;-70
2023/10/02 10:40:44;;;;;;;10.57;7.30;;;;;;;26.52;59.44;101802.06;6258684;28;20228;-70
2023/10/02 10:44:13;;;;;;;14.18;7.68;;;;;;;26.92;57.00;101811.94;6262564;28;20232;-70
2023/10/02 10:47:40;;;;;;;11.63;8.05;;;;;;;27.55;57.02;101792.63;6261397;28;20329;-70
2023/10/02 10:51:20;;;;;;;10.27;7.28;;;;;;;28.57;53.20;101786.50;6259401;28;20223;-70
2023/10/02 10:54:41;;;;;;;11.88;7.35;;;;;;;28.28;54.34;101788.97;6256875;28;20227;-69
2023/10/02 10:58:02;;;;;;;10.43;7.85;;;;;;;27.81;55.04;101786.84;6256137;28;20232;-69
2023/10/02 11:01:23;;;;;;;12.02;7.35;;;;;;;27.49;55.00;101791.59;6261613;28;20609;-69
2023/10/02 11:04:47;;;;;;;8.48;6.35;;;;;;;26.51;57.78;101792.09;6264447;28;20597;-69
2023/10/02 11:08:29;;;;;;;13.60;8.45;;;;;;;28.35;54.25;101778.63;6253015;28;20285;-69
2023/10/02 11:11:50;;;;;;;10.80;7.03;;;;;;;28.43;54.49;101781.09;6257864;28;20247;-69
2023/10/02 11:15:43;;;;;;;9.77;7.78;;;;;;;28.45;53.77;101791.97;6255046;28;20231;-70
2023/10/02 11:19:14;;;;;;;11.02;7.68;;;;;;;28.98;52.94;101781.03;6263130;28;20228;-70
2023/10/02 11:22:49;;;;;;;10.07;7.00;;;;;;;26.60;57.73;101790.75;6289794;28;20232;-69
2023/10/02 11:26:13;;;;;;;10.93;7.15;;;;;;;26.65;57.03;101787.34;6256491;28;20239;-69
2023/10/02 11:29:40;;;;;;;11.45;7.95;;;;;;;25.28;61.71;101796.59;6260142;28;20230;-70
2023/10/02 11:33:04;;;;;;;12.02;7.88;;;;;;;27.14;58.34;101775.63;6260680;28;20871;-70
2023/10/02 11:36:25;;;;;;;11.15;7.38;;;;;;;25.59;61.43;101780.31;6259994;28;20274;-69
2023/10/02 11:39:50;;;;;;;11.50;8.00;;;;;;;24.71;64.28;101769.47;6260427;28;20255;-69
2023/10/02 11:43:15;;;;;;;13.13;7.22;;;;;;;24.46;66.00;101771.91;6263846;28;20487;-69
2023/10/02 11:46:36;;;;;;;10.52;7.40;;;;;;;24.44;66.41;101767.66;6257164;28;20228;-69
2023/10/02 11:49:58;;;;;;;15.48;8.10;;;;;;;24.96;64.93;101770.63;6259670;28;20228;-69
2023/10/02 11:53:21;;;;;;;11.15;7.70;;;;;;;26.39;60.35;101762.56;6267561;28;20230;-69
2023/10/02 11:56:42;;;;;;;11.38;7.40;;;;;;;25.85;61.85;101765.59;6255479;28;20590;-69
2023/10/02 12:00:12;;;;;;;12.30;7.93;;;;;;;26.15;60.54;101764.09;6264533;28;20248;-69
2023/10/02 12:03:36;;;;;;;13.75;8.60;;;;;;;26.83;59.22;101757.03;6263499;28;20222;-69
2023/10/02 12:06:57;;;;;;;9.77;7.97;;;;;;;26.38;59.67;101756.16;6282374;28;20450;-69
2023/10/02 12:10:18;;;;;;;11.77;7.90;;;;;;;26.23;60.84;101757.47;6264611;28;20251;-69
2023/10/02 12:13:39;;;;;;;11.10;7.45;;;;;;;25.99;61.87;101753.50;6259197;28;20223;-68
2023/10/02 12:17:01;;;;;;;9.48;8.07;;;;;;;24.48;65.71;101760.66;6264283;28;20235;-70
2023/10/02 12:20:22;;;;;;;9.75;7.10;;;;;;;25.35;64.63;101759.66;6260920;28;20233;-70
2023/10/02 12:23:44;;;;;;;13.73;8.23;;;;;;;24.70;66.26;101759.47;6307542;28;20226;-69
2023/10/02 12:27:10;;;;;;;13.45;8.52;;;;;;;24.49;67.25;101746.66;6289002;28;20236;-69
2023/10/02 12:30:34;;;;;;;10.73;7.30;;;;;;;24.20;68.84;101746.13;6254807;28;20233;-70
2023/10/02 12:33:56;;;;;;;9.73;7.88;;;;;;;24.39;68.55;101746.19;6262104;28;20227;-70
2023/10/02 12:37:18;;;;;;;12.55;7.78;;;;;;;23.98;70.16;101748.06;6258195;28;20228;-69
2023/10/02 12:40:39;;;;;;;9.57;7.28;;;;;;;23.80;70.96;101750.50;6261510;28;20227;-70
2023/10/02 12:44:02;;;;;;;12.80;7.65;;;;;;;23.75;71.98;101742.84;6257573;28;20299;-69
2023/10/02 12:47:23;;;;;;;11.57;7.75;;;;;;;23.80;71.61;101740.31;6257131;28;20255;-69
2023/10/02 12:50:46;;;;;;;12.82;9.23;;;;;;;25.07;69.83;101744.34;6253349;28;20224;-69
2023/10/02 12:54:07;;;;;;;10.43;8.13;;;;;;;27.05;59.72;101738.19;6261775;28;20322;-69
2023/10/02 12:57:28;;;;;;;10.65;8.05;;;;;;;29.40;55.45;101734.69;6251426;28;20710;-69
2023/10/02 13:00:50;;;;;;;7.75;6.82;;;;;;;29.53;53.40;101737.25;6259362;28;20227;-70
2023/10/02 13:04:12;;;;;;;15.18;9.65;;;;;;;27.43;56.60;101744.56;6269957;28;20228;-70
2023/10/02 13:07:35;;;;;;;10.48;6.80;;;;;;;25.85;61.50;101743.50;6263811;28;20304;-69
2023/10/02 13:10:56;;;;;;;10.27;7.90;;;;;;;24.70;65.56;101750.38;6256780;28;20235;-69
2023/10/02 13:14:17;;;;;;;11.50;8.80;;;;;;;24.31;68.24;101740.84;6256912;28;20232;-69
2023/10/02 13:17:38;;;;;;;11.38;7.60;;;;;;;24.02;69.77;101737.47;6272666;28;20232;-69
2023/10/02 13:21:00;;;;;;;12.63;6.55;;;;;;;24.37;70.11;101736.41;6257914;28;20658;-69
2023/10/02 13:24:24;;;;;;;9.43;7.05;;;;;;;23.80;71.16;101745.00;6259940;28;20538;-69
2023/10/02 13:27:47;;;;;;;9.35;8.23;;;;;;;23.91;71.96;101732.56;6259724;28;20227;-69
2023/10/02 13:31:11;;;;;;;10.27;8.60;;;;;;;24.13;70.88;101729.53;6258103;28;20601;-68
2023/10/02 13:34:31;;;;;;;12.90;7.57;;;;;;;24.19;71.06;101738.88;6257653;28;20224;-69
2023/10/02 13:37:53;;;;;;;11.65;7.78;;;;;;;23.75;72.13;101733.72;6251023;28;20232;-68
2023/10/02 13:41:17;;;;;;;10.85;7.90;;;;;;;23.72;72.48;101739.59;6261427;28;20517;-69
2023/10/02 13:44:38;;;;;;;13.73;8.88;;;;;;;23.57;73.22;101736.13;6250392;28;20350;-68
2023/10/02 13:47:59;;;;;;;10.90;7.30;;;;;;;23.71;72.14;101729.66;6253812;28;20311;-69
2023/10/02 13:51:21;;;;;;;11.63;8.35;;;;;;;23.94;72.00;101727.47;6258091;28;20239;-69
2023/10/02 13:54:42;;;;;;;12.35;7.70;;;;;;;24.19;71.36;101730.63;6260425;28;20501;-69
2023/10/02 13:58:06;;;;;;;13.18;7.65;;;;;;;23.59;72.33;101731.28;6250954;28;20219;-69
2023/10/02 14:01:27;;;;;;;12.27;7.80;;;;;;;23.55;73.57;101735.47;6242598;28;20224;-69
2023/10/02 14:04:48;;;;;;;13.55;7.32;;;;;;;23.78;73.02;101717.63;6261327;28;20605;-70
2023/10/02 14:08:09;;;;;;;14.55;8.45;;;;;;;23.62;73.63;101720.69;6254502;28;20232;-70
2023/10/02 14:11:30;;;;;;;15.95;8.82;;;;;;;23.72;72.98;101709.31;6252854;28;20251;-70
2023/10/02 14:14:52;;;;;;;12.88;8.05;;;;;;;23.38;73.86;101707.38;6256114;28;20243;-70
2023/10/02 14:18:14;;;;;;;13.90;8.18;;;;;;;22.98;75.57;101716.28;6254613;28;20323;-69
2023/10/02 14:21:35;;;;;;;11.55;7.57;;;;;;;23.28;76.25;101701.31;6262174;28;20227;-70
2023/10/02 14:24:56;;;;;;;11.48;8.95;;;;;;;23.49;74.95;101708.75;6258529;28;20228;-69
2023/10/02 14:28:16;;;;;;;11.38;9.10;;;;;;;23.53;75.16;101708.13;6260031;28;20616;-70
2023/10/02 14:31:39;;;;;;;15.60;7.90;;;;;;;23.66;74.47;101701.84;6257776;28;22026;-70
2023/10/02 14:35:00;;;;;;;10.98;8.27;;;;;;;23.45;75.04;101700.00;6256421;28;20224;-70
2023/10/02 14:38:22;;;;;;;14.82;8.55;;;;;;;23.58;74.51;101691.00;6263764;28;20319;-70
2023/10/02 14:41:43;;;;;;;14.45;8.00;;;;;;;23.55;74.82;101688.66;6279788;28;20227;-70
2023/10/02 14:45:05;;;;;;;12.05;8.52;;;;;;;23.38;75.40;101690.00;6285797;28;20231;-69
2023/10/02 14:48:28;;;;;;;14.93;8.60;;;;;;;23.23;75.88;101694.72;6283894;28;20240;-69
2023/10/02 14:51:49;;;;;;;13.70;9.20;;;;;;;22.91;77.48;101683.22;6276684;28;20326;-68
2023/10/02 14:55:16;;;;;;;10.90;8.23;;;;;;;22.87;77.81;101684.66;6246686;28;20557;-70
2023/10/02 14:58:40;;;;;;;13.02;7.72;;;;;;;23.00;77.90;101675.69;6252839;28;20229;-70
2023/10/02 15:02:01;;;;;;;14.23;8.85;;;;;;;22.72;78.94;101672.00;6269223;28;20314;-70
2023/10/02 15:05:24;;;;;;;14.52;9.43;;;;;;;22.78;78.64;101668.50;6256416;28;20493;-69
2023/10/02 15:08:45;;;;;;;12.05;8.55;;;;;;;22.72;78.89;101672.00;6256836;28;20237;-70
2023/10/02 15:12:06;;;;;;;13.85;9.90;;;;;;;22.60;79.83;101673.56;6270143;28;20624;-70
2023/10/02 15:15:29;;;;;;;12.77;8.35;;;;;;;22.59;80.38;101666.38;6263213;28;20590;-70
2023/10/02 15:18:49;;;;;;;13.20;9.48;;;;;;;22.70;80.16;101671.34;6263838;28;20228;-70
2023/10/02 15:22:12;;;;;;;14.00;9.23;;;;;;;22.72;80.15;101663.75;6267040;28;20229;-70
2023/10/02 15:25:34;;;;;;;16.10;9.45;;;;;;;22.57;80.61;101658.28;6263713;28;20231;-70
2023/10/02 15:28:55;;;;;;;11.60;8.10;;;;;;;22.69;80.80;101651.28;6265823;28;20232;-70
2023/10/02 15:32:20;;;;;;;13.45;8.75;;;;;;;22.75;80.75;101652.38;6265393;28;20233;-70
2023/10/02 15:35:43;;;;;;;12.30;8.27;;;;;;;22.69;80.93;101651.28;6258141;28;20593;-69
2023/10/02 15:39:05;;;;;;;19.92;9.38;;;;;;;22.65;80.71;101651.84;6262583;28;20232;-69
2023/10/02 15:42:26;;;;;;;11.48;8.57;;;;;;;22.53;81.55;101656.97;6263544;28;20237;-69
2023/10/02 15:45:51;;;;;;;14.43;8.80;;;;;;;22.52;81.74;101658.03;6276043;28;20235;-70
2023/10/02 15:49:13;;;;;;;16.52;10.75;;;;;;;22.41;82.36;101655.78;6257816;28;20235;-70
2023/10/02 15:52:34;;;;;;;11.95;10.45;;;;;;;22.39;82.34;101652.38;6279464;28;20228;-70
2023/10/02 15:55:56;;;;;;;12.88;8.85;;;;;;;22.42;82.52;101653.91;6289113;28;20231;-70
2023/10/02 15:59:17;;;;;;;26.13;16.48;;;;;;;22.43;83.25;101655.59;6261645;28;20236;-69
2023/10/02 16:02:39;;;;;;;15.25;10.15;;;;;;;22.40;83.23;101647.75;6282247;28;20627;-70